Terminal Aerodrome Forecast
Issued by NWS

Home | Current Version | Previous Version | Text Only | Print | Product List | Glossary On
Versions: 1 2 3 4 5 6 7 8 9 10 11 12 13 14 15 16 17
639
FTUS45 KTFX 252342
TAFGTF
TAF
KGTF 252342Z 2600/2624 VRB05KT P6SM FEW060 BKN100
     FM260800 29008KT P6SM FEW045 BKN070
      TEMPO 2608/2612 -SHRA BKN045
     FM261700 25006KT P6SM SCT045 BKN080=

USA.gov is the U.S. government's official web portal to all federal, state and local government web resources and services.